Latest Weather Observations for Birdsville

IDQ60801

Issued at 10:31 pm EST Wednesday 2 September 2015 (issued every 30 minutes, with the page automatically refreshed every 10 minutes)

About weather observations | Map of weather stations | Latest weather observations for QLD | Other Formats
Station Details ID: 038026 Name: BIRDSVILLE AIRPORT Lat: -25.90 Lon: 139.35 Height: 46.6 m
Data from the previous 72 hours. | See also: Recent months at Birdsville
Date/Time
EST
Temp
°C
App
Temp
°C
Dew
Point
Rel
Hum
%
Delta-T
°C
Wind Press
QNH
hPa
Press
MSL
hPa
Rain
since 9 am
mm
Dir
 
Spd
km/h
Gust
km/h
Spd
kts
Gust
kts
02/10:30pm 15.2 10.6 -1.4 32 6.8 W 13 15 7 8 1018.3 - 0.0
02/10:00pm 16.3 11.7 -1.3 30 7.3 W 13 15 7 8 1018.2 - 0.0
02/09:30pm 16.6 11.9 -1.5 29 7.5 W 13 17 7 9 1017.8 - 0.0
02/09:00pm 17.4 12.4 -1.3 28 7.9 W 15 19 8 10 1017.6 1017.4 0.0
02/08:30pm 17.7 12.7 -1.5 27 8.1 WSW 15 17 8 9 1017.0 - 0.0
02/08:00pm 17.7 13.4 -1.5 27 8.1 W 11 13 6 7 1016.3 - 0.0
02/07:30pm 18.8 13.4 -1.6 25 8.6 WSW 17 20 9 11 1015.9 - 0.0
02/07:00pm 19.4 13.5 -2.2 23 9.1 WSW 19 28 10 15 1015.6 - 0.0
02/06:30pm 20.2 13.0 -2.2 22 9.5 WSW 26 33 14 18 1015.1 - 0.0
02/06:00pm 21.2 13.0 -4.0 18 10.4 WSW 30 37 16 20 1014.8 1014.8 0.0
02/05:30pm 21.7 12.7 -6.0 15 11.0 WSW 33 48 18 26 1014.3 - 0.0
02/05:02pm 22.1 12.7 -6.6 14 11.4 WSW 35 54 19 29 1014.1 - 0.0
02/05:00pm 22.2 13.2 -6.5 14 11.4 WSW 33 46 18 25 1014.1 - 0.0
02/04:30pm 22.4 12.9 -7.3 13 11.6 WSW 35 50 19 27 1013.8 - 0.0
02/04:00pm 22.7 13.6 -7.1 13 11.8 WSW 33 44 18 24 1013.5 - 0.0
02/03:38pm 22.9 13.1 -6.9 13 11.8 WSW 37 56 20 30 1013.4 - 0.0
02/03:30pm 22.5 12.3 -7.3 13 11.7 WSW 39 52 21 28 1013.5 - 0.0
02/03:00pm 23.1 14.2 -6.8 13 11.9 WSW 32 46 17 25 1013.3 1013.3 0.0
02/02:55pm 23.0 13.9 -6.9 13 11.9 WSW 33 52 18 28 1013.4 - 0.0
02/02:30pm 22.5 13.1 -6.3 14 11.5 WSW 35 46 19 25 1013.3 - 0.0
02/02:01pm 22.9 12.9 -5.1 15 11.5 WSW 39 59 21 32 1013.1 - 0.0
02/02:00pm 22.6 12.9 -5.3 15 11.4 WSW 37 52 20 28 1013.1 - 0.0
02/01:30pm 22.7 13.3 -2.8 18 10.9 WSW 37 50 20 27 1013.2 - 0.0
02/01:00pm 22.6 13.2 -2.9 18 10.9 WSW 37 48 20 26 1013.8 - 0.0
02/12:30pm 21.8 12.0 -2.8 19 10.5 WSW 39 52 21 28 1013.9 - 0.0
02/12:00pm 21.6 12.7 -2.3 20 10.2 WSW 35 43 19 23 1014.3 1014.3 0.0
02/11:30am 21.8 12.1 -2.1 20 10.3 SW 39 48 21 26 1014.3 - 0.0
02/11:00am 20.9 11.0 -1.0 23 9.6 SW 41 54 22 29 1014.2 - 0.0
02/10:30am 20.0 9.8 -0.6 25 9.0 SW 43 52 23 28 1014.3 - 0.0
02/10:00am 19.3 8.3 0.8 29 8.3 SW 48 57 26 31 1013.9 - 0.0
02/09:47am 18.7 7.3 0.8 30 8.0 SW 50 69 27 37 1013.7 - 0.0
02/09:30am 18.4 6.4 1.4 32 7.6 SW 54 67 29 36 1013.2 - 0.0
02/09:00am 18.3 6.8 2.2 34 7.3 SW 52 65 28 35 1012.7 1012.6 0.0
02/08:30am 17.4 6.3 4.4 42 6.2 SW 52 69 28 37 1011.8 - 0.0
02/08:13am 17.4 6.4 5.0 44 5.9 SW 52 70 28 38 1011.3 - 0.0
02/08:00am 17.3 5.5 4.9 44 5.9 SW 56 65 30 35 1010.8 - 0.0
02/07:58am 17.3 5.5 4.6 43 6.0 SW 56 65 30 35 1010.7 - 0.0
02/07:30am 19.2 11.0 2.6 33 7.7 WSW 35 46 19 25 1009.3 - 0.0
02/07:13am 19.5 12.6 2.8 33 7.8 WNW 28 44 15 24 1009.2 - 0.0
02/07:00am 17.3 13.0 3.2 39 6.5 NW 15 19 8 10 1008.2 - 0.0
02/06:30am 14.8 11.8 1.7 41 5.7 N 7 11 4 6 1007.7 - 0.0
02/06:00am 15.6 12.6 2.1 40 6.0 NNE 7 13 4 7 1007.7 1007.5 0.0
02/05:30am 16.1 12.3 1.8 38 6.3 NNE 11 13 6 7 1007.3 - 0.0
02/05:00am 17.0 12.1 1.8 36 6.8 NNE 17 20 9 11 1007.2 - 0.0
02/04:30am 17.2 13.5 2.4 37 6.7 ESE 11 13 6 7 1007.2 - 0.0
02/04:00am 18.7 15.0 2.5 34 7.5 ESE 11 17 6 9 1007.4 - 0.0
02/03:30am 19.9 16.0 3.6 34 7.7 S 13 15 7 8 1007.8 - 0.0
02/03:00am 19.8 15.6 3.9 35 7.6 SSW 15 19 8 10 1008.0 1008.0 0.0
02/02:30am 20.2 16.9 2.5 31 8.2 NE 9 11 5 6 1008.0 - 0.0
02/02:00am 21.1 17.6 3.3 31 8.5 NE 11 15 6 8 1007.9 - 0.0
02/01:30am 21.1 17.2 3.3 31 8.5 ENE 13 17 7 9 1008.3 - 0.0
02/01:00am 21.6 17.4 3.8 31 8.6 ENE 15 17 8 9 1008.5 - 0.0
02/12:30am 22.4 18.6 4.0 30 9.0 E 13 17 7 9 1009.0 - 0.0
02/12:00am 22.9 19.1 3.9 29 9.3 ESE 13 19 7 10 1009.2 1009.1 0.0
 
Date/Time
EST
Temp
°C
App
Temp
°C
Dew
Point
Rel
Hum
%
Delta-T
°C
Wind Press
QNH
hPa
Press
MSL
hPa
Rain
since 9 am
mm
Dir
 
Spd
km/h
Gust
km/h
Spd
kts
Gust
kts
01/11:30pm 22.3 18.5 5.7 34 8.4 SSE 15 20 8 11 1009.7 - 0.0
01/11:00pm 22.5 20.0 5.0 32 8.7 ENE 7 9 4 5 1009.6 - 0.0
01/10:30pm 22.2 18.4 3.8 30 8.9 ENE 13 15 7 8 1009.4 - 0.0
01/10:00pm 22.1 18.8 4.6 32 8.6 E 11 13 6 7 1009.8 - 0.0
01/09:30pm 22.8 19.5 4.8 31 8.9 E 11 13 6 7 1009.8 - 0.0
01/09:00pm 22.7 19.3 3.8 29 9.2 E 11 15 6 8 1009.6 1009.6 0.0
01/08:30pm 23.3 19.9 3.8 28 9.5 SSW 11 13 6 7 1010.1 - 0.0
01/08:00pm 24.0 21.4 3.3 26 10.1 NNE 6 9 3 5 1010.2 - 0.0
01/07:30pm 23.9 22.3 4.3 28 9.7 NNE 2 6 1 3 1009.5 - 0.0
01/07:00pm 24.2 21.2 4.0 27 10.0 NNE 9 11 5 6 1009.0 - 0.0
01/06:30pm 26.1 21.3 2.7 22 11.4 N 17 24 9 13 1008.8 - 0.0
01/06:00pm 26.4 23.4 5.9 27 10.6 W 11 15 6 8 1009.2 1009.3 0.0
01/05:30pm 27.9 22.2 -1.1 15 13.4 NNW 19 26 10 14 1010.0 - 0.0
01/05:00pm 28.5 24.0 -0.6 15 13.6 NW 13 17 7 9 1009.7 - 0.0
01/04:30pm 28.6 23.3 -0.5 15 13.7 NNW 17 24 9 13 1009.8 - 0.0
01/04:00pm 28.1 23.8 -1.9 14 13.7 NW 11 15 6 8 1010.0 - 0.0
01/03:30pm 27.8 22.8 -1.2 15 13.4 N 15 20 8 11 1010.4 - 0.0
01/03:00pm 27.2 21.6 -2.6 14 13.3 N 17 24 9 13 1010.8 1010.6 0.0
01/02:30pm 27.2 21.2 -1.7 15 13.1 NNE 20 26 11 14 1010.8 - 0.0
01/02:00pm 26.7 20.6 -2.1 15 12.9 NNE 20 26 11 14 1011.5 - 0.0
01/01:30pm 26.5 19.7 -2.2 15 12.9 N 24 32 13 17 1012.1 - 0.0
01/01:00pm 26.9 20.1 -1.9 15 13.0 N 24 30 13 16 1012.6 - 0.0
01/12:30pm 26.2 18.8 -3.4 14 12.9 NNE 26 35 14 19 1013.2 - 0.0
01/12:00pm 25.5 17.7 -3.9 14 12.6 NNE 28 35 15 19 1013.6 1013.6 0.0
01/11:30am 25.2 16.6 -4.2 14 12.5 NNE 32 39 17 21 1014.2 - 0.0
01/11:00am 23.4 14.6 -4.7 15 11.7 NE 33 41 18 22 1014.1 - 0.0
01/10:30am 21.7 13.1 -4.4 17 10.7 NNE 32 39 17 21 1015.0 - 0.0
01/10:00am 20.6 12.4 -3.8 19 10.1 NE 30 35 16 19 1015.0 - 0.0
01/09:30am 19.0 11.2 -3.8 21 9.3 NE 28 35 15 19 1015.2 - 0.0
01/09:00am 16.6 9.5 -4.0 24 8.1 NE 24 32 13 17 1015.2 1015.2 0.0
01/08:30am 15.0 8.6 -4.8 25 7.5 NE 20 28 11 15 1015.4 - 0.0
01/08:00am 12.7 7.2 -5.3 28 6.6 NE 15 17 8 9 1015.6 - 0.0
01/07:30am 10.7 6.2 -6.6 29 6.0 ENE 9 11 5 6 1015.6 - 0.0
01/07:00am 10.1 4.5 -6.2 31 5.7 E 15 17 8 9 1014.9 - 0.0
01/06:30am 10.2 5.0 -6.2 31 5.7 E 13 15 7 8 1015.1 - 0.0
01/06:00am 10.6 6.2 -5.8 31 5.8 E 9 11 5 6 1015.0 1014.9 0.0
01/05:30am 10.5 6.2 -5.1 33 5.6 E 9 11 5 6 1014.8 - 0.0
01/05:00am 10.7 5.8 -6.6 29 6.0 E 11 13 6 7 1015.0 - 0.0
01/04:30am 11.0 6.6 -6.3 29 6.1 E 9 11 5 6 1015.4 - 0.0
01/04:00am 11.3 6.9 -6.1 29 6.2 E 9 9 5 5 1015.7 - 0.0
01/03:30am 12.2 8.4 -5.3 29 6.4 E 6 7 3 4 1015.9 - 0.0
01/03:00am 12.3 8.5 -5.2 29 6.4 E 6 7 3 4 1016.4 1016.4 0.0
01/02:30am 12.4 8.4 -5.6 28 6.5 E 7 7 4 4 1016.5 - 0.0
01/02:00am 13.6 9.7 -4.5 28 6.8 E 7 11 4 6 1016.7 - 0.0
01/01:30am 14.5 9.8 -4.7 26 7.3 ESE 11 13 6 7 1016.7 - 0.0
01/01:00am 14.6 10.6 -5.2 25 7.4 ESE 7 11 4 6 1017.1 - 0.0
01/12:30am 14.7 10.8 -5.1 25 7.5 ESE 7 7 4 4 1017.4 - 0.0
01/12:00am 15.4 11.5 -4.5 25 7.6 ESE 7 9 4 5 1017.6 1017.6 0.0
 
Date/Time
EST
Temp
°C
App
Temp
°C
Dew
Point
Rel
Hum
%
Delta-T
°C
Wind Press
QNH
hPa
Press
MSL
hPa
Rain
since 9 am
mm
Dir
 
Spd
km/h
Gust
km/h
Spd
kts
Gust
kts
31/11:30pm 16.2 11.5 -4.9 23 8.1 ESE 11 13 6 7 1017.8 - 0.0
31/11:00pm 16.6 11.6 -4.6 23 8.3 ESE 13 17 7 9 1018.1 - 0.0
31/10:30pm 16.8 11.8 -4.4 23 8.3 ESE 13 17 7 9 1018.0 - 0.0
31/10:00pm 17.3 12.7 -4.0 23 8.5 ESE 11 15 6 8 1018.4 - 0.0
31/09:30pm 17.6 13.0 -3.7 23 8.5 SE 11 15 6 8 1018.2 - 0.0
31/09:00pm 17.5 12.6 -3.8 23 8.5 SE 13 15 7 8 1018.1 1018.1 0.0
31/08:30pm 18.1 13.8 -4.5 21 9.0 SSE 9 11 5 6 1018.1 - 0.0
31/08:00pm 19.4 14.8 -4.1 20 9.5 SSE 11 15 6 8 1017.8 - 0.0
31/07:30pm 20.2 15.2 -4.1 19 9.9 SSE 13 15 7 8 1017.6 - 0.0
31/07:00pm 21.1 16.8 -4.9 17 10.5 SSE 9 13 5 7 1017.4 - 0.0
31/06:30pm 22.0 16.9 -4.9 16 11.0 SSE 13 15 7 8 1017.3 - 0.0
31/06:00pm 22.9 18.6 -5.1 15 11.5 S 9 17 5 9 1017.2 1017.2 0.0
31/05:30pm 24.0 20.3 -4.2 15 11.9 SW 6 9 3 5 1017.1 - 0.0
31/05:00pm 23.0 19.1 -5.0 15 11.5 SE 7 15 4 8 1017.1 - 0.0
31/04:30pm 23.5 19.6 -4.6 15 11.7 S 7 11 4 6 1017.3 - 0.0
31/04:00pm 22.6 17.9 -5.3 15 11.4 SSE 11 17 6 9 1017.1 - 0.0
31/03:30pm 22.6 18.9 -4.5 16 11.2 SSE 6 11 3 6 1017.4 - 0.0
31/03:00pm 23.0 18.8 -4.1 16 11.3 SSE 9 15 5 8 1017.6 1017.7 0.0
31/02:30pm 22.7 18.1 -4.4 16 11.3 S 11 19 6 10 1017.9 - 0.0
31/02:00pm 22.8 18.4 -2.7 18 11.0 SSE 11 17 6 9 1018.3 - 0.0
31/01:30pm 22.4 17.9 -3.1 18 10.8 ENE 11 19 6 10 1018.8 - 0.0
31/01:00pm 22.0 17.9 -2.7 19 10.5 E 9 17 5 9 1019.3 - 0.0
31/12:30pm 21.5 17.0 -3.1 19 10.4 E 11 19 6 10 1020.0 - 0.0
31/12:00pm 20.8 15.6 -3.0 20 10.0 E 15 20 8 11 1020.0 1020.1 0.0
31/11:30am 20.5 14.6 -2.5 21 9.7 ENE 19 30 10 16 1020.5 - 0.0
31/11:00am 20.7 14.9 -1.8 22 9.7 ENE 19 24 10 13 1021.0 - 0.0
31/10:30am 19.5 13.4 -2.2 23 9.1 ENE 20 28 11 15 1021.4 - 0.0
31/10:00am 18.6 12.8 -1.8 25 8.6 ENE 19 20 10 11 1021.4 - 0.0
31/09:30am 16.9 10.4 -2.2 27 7.8 E 22 28 12 15 1021.3 - 0.0
31/09:00am 15.6 10.6 -1.4 31 7.0 E 15 22 8 12 1021.2 1021.1 0.0
31/08:30am 13.0 8.6 -2.1 35 6.0 E 11 15 6 8 1021.2 - 0.0
31/08:00am 11.5 7.9 -2.0 39 5.3 SSE 7 11 4 6 1020.7 - 0.0
31/07:30am 10.3 6.7 -2.0 42 4.7 S 7 9 4 5 1020.6 - 0.0
31/07:00am 9.3 5.7 -2.3 44 4.4 S 7 9 4 5 1020.4 - 0.0
31/06:30am 9.8 6.2 -1.9 44 4.5 SSE 7 9 4 5 1019.9 - 0.0
31/06:00am 9.3 5.9 -2.3 44 4.4 SSE 6 7 3 4 1019.5 1019.5 0.0
31/05:30am 9.4 6.7 -2.2 44 4.4 SSE 2 6 1 3 1019.4 - 0.0
31/05:00am 9.6 6.1 -3.0 41 4.7 SSE 6 9 3 5 1019.2 - 0.0
31/04:30am 9.7 5.6 -2.9 41 4.7 SSE 9 11 5 6 1019.1 - 0.0
31/04:00am 10.3 6.3 -2.4 41 4.8 SSE 9 11 5 6 1019.2 - 0.0
31/03:30am 10.1 6.4 -3.2 39 5.0 SSE 7 9 4 5 1019.7 - 0.0
31/03:00am 10.7 6.6 -2.7 39 5.1 SSE 9 11 5 6 1019.7 1019.7 0.0
31/02:30am 10.8 7.1 -2.9 38 5.2 SSE 7 9 4 5 1020.0 - 0.0
31/02:00am 11.1 7.4 -3.0 37 5.4 S 7 11 4 6 1020.5 - 0.0
31/01:30am 11.4 7.2 -3.5 35 5.6 SSE 9 11 5 6 1020.8 - 0.0
31/01:00am 12.2 8.1 -3.2 34 5.9 SSE 9 11 5 6 1020.8 - 0.0
31/12:30am 12.6 8.9 -3.2 33 6.1 SSE 7 11 4 6 1020.9 - 0.0
31/12:00am 13.0 9.3 -3.3 32 6.3 SSE 7 11 4 6 1020.9 1021.0 0.0
 
Date/Time
EST
Temp
°C
App
Temp
°C
Dew
Point
Rel
Hum
%
Delta-T
°C
Wind Press
QNH
hPa
Press
MSL
hPa
Rain
since 9 am
mm
Dir
 
Spd
km/h
Gust
km/h
Spd
kts
Gust
kts
30/11:30pm 13.7 9.2 -3.1 31 6.6 SSE 11 13 6 7 1021.0 - 0.0
30/11:00pm 14.5 10.0 -3.3 29 7.0 SSE 11 15 6 8 1021.4 - 0.0

Other Formats:

Comma delimited format used in spreadsheet applications
http://www.bom.gov.au/fwo/IDQ60801/IDQ60801.95482.axf

JavaScript Object Notation format (JSON) in row-major order
http://www.bom.gov.au/fwo/IDQ60801/IDQ60801.95482.json